Time;durP1;ratioP1;P1;durP2;ratioP2;P2;SDS_P1;SDS_P2;PMS_P1;PMS_P2;Temp;Humidity;BMP_temperature;BMP_pressure;BME280_temperature;BME280_humidity;BME280_pressure;Samples;Min_cycle;Max_cycle;Signal;HPM_P1;HPM_P2
2022/08/24 00:02:27;;;;;;;5.72;5.22;;;19.60;99.90;;;;;;4994429;28;20203;-85
2022/08/24 00:04:55;;;;;;;5.28;4.78;;;19.60;99.90;;;;;;4994778;28;20196;-82
2022/08/24 00:07:24;;;;;;;5.07;4.63;;;19.60;99.90;;;;;;4994042;28;20200;-83
2022/08/24 00:09:50;;;;;;;5.00;4.50;;;19.60;99.90;;;;;;5003740;28;20227;-85
2022/08/24 00:12:18;;;;;;;5.65;5.15;;;19.60;99.90;;;;;;5014046;28;20531;-75
2022/08/24 00:14:45;;;;;;;6.00;5.50;;;19.50;99.90;;;;;;5003359;28;20223;-80
2022/08/24 00:17:12;;;;;;;5.28;4.80;;;19.50;99.90;;;;;;4993102;28;20261;-78
2022/08/24 00:19:40;;;;;;;4.80;4.40;;;19.50;99.90;;;;;;4993032;28;20497;-75
2022/08/24 00:22:06;;;;;;;4.90;4.47;;;19.50;99.90;;;;;;4992674;28;20216;-75
2022/08/24 00:24:35;;;;;;;5.18;4.78;;;19.50;99.90;;;;;;4993455;28;20200;-79
2022/08/24 00:27:02;;;;;;;6.13;4.75;;;19.50;99.90;;;;;;4993182;28;20200;-76
2022/08/24 00:29:28;;;;;;;4.63;4.22;;;19.50;99.90;;;;;;4991957;28;20200;-77
2022/08/24 00:31:55;;;;;;;4.10;3.80;;;19.40;99.90;;;;;;4992659;28;20227;-76
2022/08/24 00:34:22;;;;;;;4.82;4.43;;;19.40;99.90;;;;;;4991751;28;20719;-75
2022/08/24 00:36:49;;;;;;;4.30;3.90;;;19.40;99.90;;;;;;4992387;28;20208;-77
2022/08/24 00:39:16;;;;;;;4.05;3.75;;;19.30;99.90;;;;;;4992563;28;20702;-77
2022/08/24 00:41:48;;;;;;;4.30;3.85;;;19.30;99.90;;;;;;4992595;28;20580;-76
2022/08/24 00:44:16;;;;;;;5.35;4.85;;;19.30;99.90;;;;;;4992784;28;20192;-76
2022/08/24 00:46:46;;;;;;;5.22;4.72;;;19.30;99.90;;;;;;4992704;28;20199;-76
2022/08/24 00:49:21;;;;;;;4.20;3.80;;;19.30;99.90;;;;;;4992761;28;20541;-78
2022/08/24 00:51:55;;;;;;;4.78;4.38;;;19.30;99.90;;;;;;4992088;28;20596;-79
2022/08/24 00:54:26;;;;;;;4.80;4.30;;;19.20;99.90;;;;;;4993010;28;20216;-84
2022/08/24 00:56:58;;;;;;;5.10;4.07;;;19.20;99.90;;;;;;4992586;28;20597;-76
2022/08/24 00:59:28;;;;;;;4.10;3.67;;;19.20;99.90;;;;;;4992319;28;20200;-80
2022/08/24 01:01:58;;;;;;;3.50;3.20;;;19.20;99.90;;;;;;4992281;28;20188;-75
2022/08/24 01:04:29;;;;;;;3.95;3.60;;;19.20;99.90;;;;;;4992026;28;20291;-80
2022/08/24 01:06:57;;;;;;;4.78;4.05;;;19.20;99.90;;;;;;4993665;28;20190;-84
2022/08/24 01:09:24;;;;;;;4.85;4.43;;;19.10;99.90;;;;;;4993804;28;20210;-86
2022/08/24 01:11:51;;;;;;;3.90;3.30;;;19.20;99.90;;;;;;4993880;28;20196;-84
2022/08/24 01:14:21;;;;;;;3.60;3.30;;;19.20;99.90;;;;;;4993881;28;20828;-79
2022/08/24 01:19:37;;;;;;;4.00;2.97;;;19.20;99.90;;;;;;4996686;28;20195;-80
2022/08/24 01:22:29;;;;;;;3.42;3.10;;;19.20;99.90;;;;;;5000017;28;20219;-82
2022/08/24 01:24:58;;;;;;;3.28;2.97;;;19.20;99.90;;;;;;5016872;28;20575;-76
2022/08/24 01:27:25;;;;;;;3.40;2.80;;;19.20;99.90;;;;;;5016183;28;20195;-75
2022/08/24 01:29:53;;;;;;;2.85;2.65;;;19.10;99.90;;;;;;5001476;28;20212;-77
2022/08/24 01:32:22;;;;;;;3.10;2.63;;;19.10;99.90;;;;;;4995844;28;20211;-76
2022/08/24 01:34:50;;;;;;;3.10;2.90;;;19.10;99.90;;;;;;4996210;28;20228;-75
2022/08/24 01:37:17;;;;;;;3.50;2.90;;;19.10;99.90;;;;;;5003479;28;20231;-77
2022/08/24 01:39:46;;;;;;;3.05;2.85;;;19.10;99.90;;;;;;5015464;28;20203;-77
2022/08/24 01:42:14;;;;;;;3.63;3.33;;;19.10;99.90;;;;;;5015573;28;20206;-79
2022/08/24 01:44:43;;;;;;;3.00;2.75;;;19.10;99.90;;;;;;4997955;28;20684;-81
2022/08/24 01:47:12;;;;;;;2.97;2.78;;;19.00;99.90;;;;;;4995087;28;20206;-76
2022/08/24 01:49:41;;;;;;;3.60;3.20;;;19.00;99.90;;;;;;4995941;28;20197;-82
2022/08/24 01:52:11;;;;;;;3.20;2.90;;;19.00;99.90;;;;;;4996255;28;20214;-75
2022/08/24 01:54:39;;;;;;;3.28;2.85;;;19.00;99.90;;;;;;4996244;28;20628;-77
2022/08/24 01:57:06;;;;;;;3.08;2.88;;;19.00;99.90;;;;;;4995901;28;20623;-83
2022/08/24 01:59:34;;;;;;;3.05;2.75;;;19.00;99.90;;;;;;4996541;28;20283;-87
2022/08/24 02:02:06;;;;;;;3.20;2.90;;;19.00;99.90;;;;;;4995880;28;20212;-83
2022/08/24 02:04:34;;;;;;;3.55;3.25;;;19.00;99.90;;;;;;4995959;28;20247;-82
2022/08/24 02:07:01;;;;;;;4.63;4.20;;;19.00;99.90;;;;;;5013415;28;20207;-85
2022/08/24 02:09:28;;;;;;;6.00;4.40;;;19.00;99.90;;;;;;5015396;28;20214;-86
2022/08/24 02:11:55;;;;;;;4.05;3.50;;;19.00;99.90;;;;;;5016170;28;20218;-87
2022/08/24 02:14:22;;;;;;;3.72;3.42;;;19.00;99.90;;;;;;5015608;28;20210;-77
2022/08/24 02:16:50;;;;;;;3.65;3.30;;;19.00;99.90;;;;;;5016164;28;20210;-87
2022/08/24 02:19:17;;;;;;;4.70;4.25;;;18.90;99.90;;;;;;5015874;28;20235;-82
2022/08/24 02:21:44;;;;;;;3.83;3.47;;;19.00;99.90;;;;;;5016294;28;20206;-86
2022/08/24 02:24:11;;;;;;;4.95;4.45;;;18.90;99.90;;;;;;4997577;28;20231;-86
2022/08/24 02:26:39;;;;;;;5.85;5.35;;;18.90;99.90;;;;;;4997550;28;20572;-87
2022/08/24 02:29:06;;;;;;;5.80;4.53;;;18.90;99.90;;;;;;5013603;28;20219;-87
2022/08/24 02:31:35;;;;;;;5.28;4.70;;;19.00;99.90;;;;;;5017171;28;20504;-86
2022/08/24 02:34:04;;;;;;;5.18;4.68;;;18.90;99.90;;;;;;5016586;28;20250;-87
2022/08/24 02:36:31;;;;;;;5.95;4.57;;;19.00;99.90;;;;;;5003881;28;20259;-87
2022/08/24 02:38:58;;;;;;;6.20;4.50;;;19.00;99.90;;;;;;4997270;28;20204;-85
2022/08/24 02:41:26;;;;;;;4.20;3.90;;;19.00;99.90;;;;;;4997156;28;20206;-86
2022/08/24 02:43:53;;;;;;;5.78;5.25;;;19.00;99.90;;;;;;5008527;28;20203;-87
2022/08/24 02:46:24;;;;;;;7.43;6.53;;;19.00;99.90;;;;;;5016364;28;20487;-85
2022/08/24 02:48:51;;;;;;;7.40;6.65;;;19.00;99.90;;;;;;4999323;28;20243;-86
2022/08/24 02:51:25;;;;;;;7.05;6.35;;;19.00;99.90;;;;;;4996964;28;20208;-86
2022/08/24 02:53:52;;;;;;;6.75;6.05;;;19.10;99.90;;;;;;4996988;28;20271;-86
2022/08/24 02:56:19;;;;;;;7.07;6.38;;;19.10;99.90;;;;;;4996972;28;20538;-88
2022/08/24 02:58:46;;;;;;;8.05;7.22;;;19.10;99.90;;;;;;4996785;28;20208;-88
2022/08/24 03:01:14;;;;;;;7.35;6.10;;;19.10;99.90;;;;;;4996879;28;20210;-86
2022/08/24 03:03:41;;;;;;;6.85;5.75;;;19.10;99.90;;;;;;5015004;28;20208;-86
2022/08/24 03:06:09;;;;;;;5.38;4.88;;;19.10;99.90;;;;;;5016259;28;20638;-87
2022/08/24 03:08:38;;;;;;;5.97;5.30;;;19.10;99.90;;;;;;5016312;28;20195;-87
2022/08/24 03:11:07;;;;;;;5.03;4.53;;;19.10;99.90;;;;;;5003122;28;20298;-77
2022/08/24 03:13:34;;;;;;;5.72;5.22;;;19.10;99.90;;;;;;4996725;28;20211;-86
2022/08/24 03:16:01;;;;;;;4.55;4.15;;;19.00;99.90;;;;;;4996027;28;20535;-87
2022/08/24 03:18:28;;;;;;;5.03;4.53;;;19.00;99.90;;;;;;4996424;28;20192;-83
2022/08/24 03:20:56;;;;;;;9.32;7.75;;;19.00;99.90;;;;;;4996771;28;20289;-85
2022/08/24 03:23:24;;;;;;;8.93;7.60;;;19.00;99.90;;;;;;4996556;28;20497;-84
2022/08/24 03:25:52;;;;;;;8.32;7.43;;;19.00;99.90;;;;;;4995935;28;20207;-87
2022/08/24 03:28:19;;;;;;;10.98;9.00;;;19.00;99.90;;;;;;4995785;28;20234;-87
2022/08/24 03:30:47;;;;;;;11.38;9.40;;;19.00;99.90;;;;;;4996248;28;20255;-87
2022/08/24 03:33:14;;;;;;;9.48;8.38;;;19.00;99.90;;;;;;4995949;28;20285;-85
2022/08/24 03:35:41;;;;;;;9.93;8.85;;;19.00;99.90;;;;;;5013707;28;20447;-87
2022/08/24 03:38:08;;;;;;;10.98;9.32;;;19.00;99.90;;;;;;5015613;28;20409;-87
2022/08/24 03:40:35;;;;;;;10.95;9.85;;;19.10;99.90;;;;;;5005939;28;20263;-87
2022/08/24 03:43:03;;;;;;;10.05;9.05;;;19.10;99.90;;;;;;4996270;28;20291;-87
2022/08/24 03:45:30;;;;;;;7.75;6.95;;;19.00;99.90;;;;;;4996449;28;20199;-87
2022/08/24 03:47:57;;;;;;;9.40;8.30;;;19.00;99.90;;;;;;4995438;28;20536;-87
2022/08/24 03:50:25;;;;;;;9.07;7.75;;;19.10;99.90;;;;;;4995887;28;20290;-85
2022/08/24 03:52:53;;;;;;;6.80;6.05;;;19.10;99.90;;;;;;4993763;28;20200;-87
2022/08/24 03:55:20;;;;;;;8.43;7.38;;;19.10;99.90;;;;;;4996300;28;20227;-86
2022/08/24 03:57:47;;;;;;;7.07;6.40;;;19.20;99.90;;;;;;4996232;28;20204;-85
2022/08/24 04:00:16;;;;;;;8.55;7.68;;;19.20;99.90;;;;;;4995725;28;20352;-84
2022/08/24 04:02:44;;;;;;;6.05;5.45;;;19.20;99.90;;;;;;4995669;28;20200;-84
2022/08/24 04:05:12;;;;;;;5.95;5.45;;;19.20;99.90;;;;;;4995560;28;20203;-85
2022/08/24 04:07:39;;;;;;;6.60;6.00;;;19.20;99.90;;;;;;5014032;28;20199;-84
2022/08/24 04:10:06;;;;;;;6.68;6.07;;;19.20;99.90;;;;;;5015018;28;20210;-82
2022/08/24 04:12:33;;;;;;;7.75;7.05;;;19.20;99.90;;;;;;5006799;28;20212;-83
2022/08/24 04:15:00;;;;;;;9.48;8.60;;;19.20;99.90;;;;;;4995252;28;20664;-82
2022/08/24 04:17:29;;;;;;;11.13;10.10;;;19.20;99.90;;;;;;4995832;28;20208;-84
2022/08/24 04:19:58;;;;;;;10.52;9.63;;;19.20;99.90;;;;;;5012545;28;20219;-86
2022/08/24 04:22:26;;;;;;;9.95;9.15;;;19.30;99.90;;;;;;5011858;28;20201;-81
2022/08/24 04:24:55;;;;;;;9.95;9.07;;;19.20;99.90;;;;;;4995505;28;20291;-74
2022/08/24 04:27:22;;;;;;;10.13;9.25;;;19.20;99.90;;;;;;5013565;28;20223;-83
2022/08/24 04:29:49;;;;;;;10.23;9.32;;;19.30;99.90;;;;;;5000917;28;20291;-79
2022/08/24 04:32:17;;;;;;;9.73;8.88;;;19.30;99.90;;;;;;4997254;28;20260;-78
2022/08/24 04:34:46;;;;;;;11.75;10.75;;;19.30;99.90;;;;;;4998852;28;20648;-81
2022/08/24 04:37:14;;;;;;;11.48;10.40;;;19.30;99.90;;;;;;5009247;28;20238;-85
2022/08/24 04:39:42;;;;;;;12.38;11.27;;;19.40;99.90;;;;;;5015314;28;20200;-79
2022/08/24 04:42:09;;;;;;;12.55;11.35;;;19.40;99.90;;;;;;5014944;28;20196;-82
2022/08/24 04:44:36;;;;;;;12.48;11.35;;;19.50;99.90;;;;;;5010878;28;20212;-81
2022/08/24 04:47:04;;;;;;;11.43;10.38;;;19.50;99.90;;;;;;4992902;28;20192;-79
2022/08/24 04:49:32;;;;;;;10.88;9.95;;;19.50;99.90;;;;;;4992874;28;20490;-79
2022/08/24 04:52:01;;;;;;;12.05;10.82;;;19.50;99.90;;;;;;4994328;28;20203;-79
2022/08/24 04:54:27;;;;;;;10.02;8.90;;;19.50;99.90;;;;;;4997315;28;20223;-75
2022/08/24 04:56:54;;;;;;;9.77;8.75;;;19.60;99.90;;;;;;4996172;28;20223;-84
2022/08/24 04:59:21;;;;;;;9.18;8.38;;;19.50;99.90;;;;;;4997466;28;20214;-83
2022/08/24 05:01:48;;;;;;;9.23;8.32;;;19.60;99.90;;;;;;4996976;28;20208;-75
2022/08/24 05:04:15;;;;;;;11.20;9.70;;;19.60;99.90;;;;;;4996470;28;20199;-76
2022/08/24 05:06:42;;;;;;;12.45;9.85;;;19.60;99.90;;;;;;4996809;28;20196;-83
2022/08/24 05:09:11;;;;;;;10.70;9.60;;;19.60;99.90;;;;;;4996796;28;20203;-75
2022/08/24 05:11:39;;;;;;;10.15;9.15;;;19.60;99.90;;;;;;4996152;28;20204;-75
2022/08/24 05:14:07;;;;;;;8.15;7.35;;;19.60;99.90;;;;;;4996092;28;20204;-75
2022/08/24 05:16:36;;;;;;;7.03;6.15;;;19.50;99.90;;;;;;4996592;28;20220;-76
2022/08/24 05:19:03;;;;;;;7.93;6.68;;;19.50;99.90;;;;;;4995536;28;20204;-75
2022/08/24 05:21:30;;;;;;;8.85;7.53;;;19.60;99.90;;;;;;4996307;28;20208;-75
2022/08/24 05:23:57;;;;;;;7.43;6.72;;;19.50;99.90;;;;;;4995943;28;20206;-76
2022/08/24 05:26:27;;;;;;;8.35;7.55;;;19.50;99.90;;;;;;4995997;28;20270;-76
2022/08/24 05:28:55;;;;;;;10.60;9.57;;;19.50;99.90;;;;;;4996205;28;20294;-78
2022/08/24 05:31:24;;;;;;;10.63;9.57;;;19.50;99.90;;;;;;4995462;28;20200;-76
2022/08/24 05:33:51;;;;;;;11.63;10.07;;;19.50;99.90;;;;;;4996235;28;20235;-84
2022/08/24 05:36:21;;;;;;;10.18;9.07;;;19.50;99.90;;;;;;4997417;28;20220;-83
2022/08/24 05:38:50;;;;;;;9.80;8.75;;;19.50;99.90;;;;;;4997456;28;20196;-84
2022/08/24 05:41:17;;;;;;;8.05;7.25;;;19.60;99.90;;;;;;5005354;28;20210;-84
2022/08/24 05:43:46;;;;;;;10.43;8.25;;;19.60;99.90;;;;;;5017480;28;20199;-83
2022/08/24 05:46:14;;;;;;;14.13;12.63;;;19.60;99.90;;;;;;5016944;28;20278;-85
2022/08/24 05:48:42;;;;;;;11.05;9.52;;;19.70;99.90;;;;;;5016406;28;20593;-85
2022/08/24 05:51:10;;;;;;;9.00;8.10;;;19.70;99.90;;;;;;5016822;28;20590;-87
2022/08/24 05:53:37;;;;;;;10.57;9.52;;;19.70;99.90;;;;;;5016785;28;20199;-86
2022/08/24 05:56:06;;;;;;;9.00;8.20;;;19.70;99.90;;;;;;5015995;28;20627;-84
2022/08/24 05:58:33;;;;;;;10.27;8.85;;;19.70;99.90;;;;;;5014377;28;20509;-81
2022/08/24 06:01:06;;;;;;;11.95;10.32;;;19.70;99.90;;;;;;4996165;28;20299;-84
2022/08/24 06:03:33;;;;;;;11.40;10.02;;;19.70;99.90;;;;;;4996882;28;20203;-84
2022/08/24 06:06:02;;;;;;;11.48;9.43;;;19.80;99.90;;;;;;4999817;28;20286;-86
2022/08/24 06:08:29;;;;;;;11.77;9.52;;;19.80;99.90;;;;;;4996070;28;20208;-84
2022/08/24 06:10:57;;;;;;;14.38;11.38;;;19.80;99.90;;;;;;4997016;28;20603;-83
2022/08/24 06:13:24;;;;;;;14.00;11.20;;;19.80;99.90;;;;;;4996730;28;20519;-81
2022/08/24 06:16:04;;;;;;;12.45;11.13;;;19.90;99.90;;;;;;4996188;28;20227;-84
2022/08/24 06:18:31;;;;;;;12.82;10.82;;;19.90;99.90;;;;;;4996369;28;20200;-84
2022/08/24 06:20:58;;;;;;;11.30;10.15;;;20.00;99.90;;;;;;4995800;28;20204;-81
2022/08/24 06:23:25;;;;;;;11.43;10.15;;;20.10;99.90;;;;;;4995741;28;20218;-76
2022/08/24 06:28:36;;;;;;;10.05;8.90;;;20.10;99.90;;;;;;4995325;28;20654;-83
2022/08/24 06:31:06;;;;;;;9.82;8.82;;;20.20;99.90;;;;;;4996056;28;20200;-76
2022/08/24 06:33:33;;;;;;;9.82;8.65;;;20.20;99.90;;;;;;4996652;28;20278;-83
2022/08/24 06:36:00;;;;;;;11.07;8.80;;;20.30;99.90;;;;;;4998306;28;20228;-82
2022/08/24 06:38:27;;;;;;;13.30;10.38;;;20.30;99.90;;;;;;5016304;28;20211;-82
2022/08/24 06:40:54;;;;;;;10.85;9.75;;;20.40;99.90;;;;;;5000195;28;20223;-80
2022/08/24 06:43:21;;;;;;;12.15;10.10;;;20.50;99.90;;;;;;4995227;28;20214;-83
2022/08/24 06:45:48;;;;;;;9.82;8.02;;;20.50;99.90;;;;;;5004046;28;20204;-81
2022/08/24 06:48:17;;;;;;;9.23;7.75;;;20.60;99.90;;;;;;5023625;28;20267;-83
2022/08/24 06:50:44;;;;;;;10.63;8.57;;;20.70;99.90;;;;;;5016105;28;20206;-82
2022/08/24 06:53:13;;;;;;;8.48;7.55;;;20.80;99.90;;;;;;5012453;28;20221;-82
2022/08/24 06:55:45;;;;;;;9.57;8.25;;;20.90;99.90;;;;;;5020808;28;20210;-78
2022/08/24 06:58:12;;;;;;;8.93;7.88;;;21.10;99.90;;;;;;5020699;28;20215;-81
2022/08/24 07:00:40;;;;;;;8.82;6.63;;;21.20;99.90;;;;;;5017733;28;20222;-81
2022/08/24 07:03:07;;;;;;;7.35;6.10;;;21.40;99.90;;;;;;5039431;28;20274;-81
2022/08/24 07:05:36;;;;;;;7.72;5.68;;;21.50;99.90;;;;;;5019538;28;20206;-84
2022/08/24 07:08:04;;;;;;;6.35;5.65;;;21.60;99.90;;;;;;5007375;28;20278;-82
2022/08/24 07:10:31;;;;;;;5.60;5.07;;;21.80;99.90;;;;;;5007129;28;20215;-81
2022/08/24 07:12:58;;;;;;;5.72;5.10;;;21.90;99.90;;;;;;5026160;28;20287;-83
2022/08/24 07:15:25;;;;;;;6.35;4.93;;;22.10;99.90;;;;;;5034120;28;20203;-83
2022/08/24 07:17:53;;;;;;;5.05;4.47;;;22.30;99.90;;;;;;5021464;28;20249;-84
2022/08/24 07:20:20;;;;;;;4.90;4.43;;;22.60;99.90;;;;;;5007792;28;20208;-86
2022/08/24 07:22:48;;;;;;;4.57;4.00;;;22.90;99.90;;;;;;4997370;28;20200;-84
2022/08/24 07:25:15;;;;;;;3.38;2.90;;;23.10;99.90;;;;;;4995348;28;20212;-84
2022/08/24 07:27:42;;;;;;;4.13;3.13;;;23.30;99.90;;;;;;4997591;28;20199;-83
2022/08/24 07:30:09;;;;;;;3.05;2.58;;;23.50;99.90;;;;;;4996611;28;20199;-84
2022/08/24 07:32:37;;;;;;;2.45;2.25;;;23.70;99.90;;;;;;4996212;28;20259;-84
2022/08/24 07:35:04;;;;;;;3.38;2.60;;;23.70;99.90;;;;;;4999741;28;20208;-82
2022/08/24 07:37:31;;;;;;;2.95;2.42;;;23.80;99.90;;;;;;5011918;23;20334;-83
2022/08/24 07:40:00;;;;;;;3.85;2.70;;;23.80;99.90;;;;;;5046259;28;20251;-81
2022/08/24 07:42:26;;;;;;;3.67;2.67;;;23.90;99.90;;;;;;5049752;28;20210;-82
2022/08/24 07:44:53;;;;;;;3.38;2.40;;;24.00;99.90;;;;;;5030419;28;20202;-85
2022/08/24 07:47:20;;;;;;;3.08;2.42;;;24.10;99.90;;;;;;5029053;28;20235;-76
2022/08/24 07:49:48;;;;;;;4.60;2.67;;;24.20;99.90;;;;;;5029183;28;20272;-83
2022/08/24 07:52:15;;;;;;;3.97;2.78;;;24.30;99.90;;;;;;5048567;28;20301;-81
2022/08/24 07:54:41;;;;;;;2.78;2.10;;;24.40;99.90;;;;;;5047019;28;20206;-82
2022/08/24 07:57:10;;;;;;;4.90;3.30;;;24.50;99.90;;;;;;5032171;28;20609;-80
2022/08/24 07:59:37;;;;;;;3.63;2.47;;;24.60;99.90;;;;;;5030120;28;20200;-84
2022/08/24 08:02:07;;;;;;;3.10;2.80;;;24.70;99.90;;;;;;5017632;28;20199;-79
2022/08/24 08:04:34;;;;;;;2.78;2.55;;;24.70;99.90;;;;;;5019170;28;20207;-85
2022/08/24 08:07:00;;;;;;;3.13;2.80;;;24.80;99.90;;;;;;5035986;28;20313;-82
2022/08/24 08:09:28;;;;;;;2.33;1.83;;;24.80;99.90;;;;;;5045617;28;20194;-82
2022/08/24 08:11:55;;;;;;;3.50;2.90;;;25.00;99.90;;;;;;5046275;28;20241;-82
2022/08/24 08:14:23;;;;;;;5.18;3.22;;;25.10;99.90;;;;;;5048126;28;20221;-84
2022/08/24 08:16:50;;;;;;;2.78;2.58;;;25.10;99.90;;;;;;5047980;28;20262;-85
2022/08/24 08:19:17;;;;;;;4.97;2.88;;;25.20;99.90;;;;;;5044058;28;20191;-85
2022/08/24 08:24:30;;;;;;;2.95;2.08;;;25.40;99.90;;;;;;5035793;28;20260;-83
2022/08/24 08:26:58;;;;;;;2.28;2.08;;;25.60;99.90;;;;;;5034470;28;20198;-85
2022/08/24 08:29:26;;;;;;;4.05;2.80;;;25.80;99.90;;;;;;5027698;28;20206;-84
2022/08/24 08:31:54;;;;;;;2.42;2.20;;;26.10;99.90;;;;;;5014608;28;20204;-77
2022/08/24 08:34:21;;;;;;;4.43;2.83;;;26.30;99.90;;;;;;5014828;28;20238;-80
2022/08/24 08:36:49;;;;;;;4.30;2.70;;;26.50;99.90;;;;;;5014569;28;20237;-86
2022/08/24 08:39:17;;;;;;;4.85;3.17;;;26.60;99.90;;;;;;5025875;28;20230;-82
2022/08/24 08:42:23;;;;;;;4.28;2.67;;;26.80;99.90;;;;;;5033501;28;20285;-85
2022/08/24 08:45:22;;;;;;;7.22;3.63;;;27.10;99.90;;;;;;5032246;28;20209;-83
2022/08/24 08:48:31;;;;;;;5.80;4.40;;;27.40;99.90;;;;;;5024918;28;20198;-82
2022/08/24 08:51:39;;;;;;;6.50;4.13;;;27.70;99.90;;;;;;5014289;28;20738;-83
2022/08/24 08:54:31;;;;;;;3.80;3.03;;;27.90;99.90;;;;;;4992401;28;20293;-83
2022/08/24 08:57:28;;;;;;;5.00;4.18;;;28.20;99.90;;;;;;5013142;28;20215;-84
2022/08/24 09:00:12;;;;;;;6.13;4.20;;;28.40;99.90;;;;;;4996995;28;20207;-85
2022/08/24 09:03:00;;;;;;;3.35;2.67;;;28.40;99.90;;;;;;5013200;28;20218;-83
2022/08/24 09:05:58;;;;;;;5.43;3.17;;;28.60;99.90;;;;;;5013447;28;20669;-82
2022/08/24 09:08:40;;;;;;;7.10;3.70;;;28.80;99.90;;;;;;5019406;28;20199;-84
2022/08/24 09:11:15;;;;;;;6.38;2.85;;;28.90;99.90;;;;;;5032459;28;20199;-84
2022/08/24 09:14:04;;;;;;;7.18;2.97;;;29.00;99.90;;;;;;5019093;28;20203;-83
2022/08/24 09:17:00;;;;;;;5.80;3.08;;;29.10;99.90;;;;;;5013148;28;20202;-86
2022/08/24 09:19:41;;;;;;;5.03;3.15;;;29.30;99.90;;;;;;5013867;28;20211;-86
2022/08/24 09:22:13;;;;;;;5.57;2.80;;;29.40;99.90;;;;;;5024674;28;20233;-83
2022/08/24 09:25:02;;;;;;;4.45;3.17;;;29.50;99.90;;;;;;5032689;28;20205;-84
2022/08/24 09:27:41;;;;;;;2.42;2.10;;;29.50;99.90;;;;;;5023329;28;20196;-86
2022/08/24 09:30:12;;;;;;;4.30;2.92;;;29.60;99.90;;;;;;5013020;28;20195;-84
2022/08/24 09:33:05;;;;;;;4.53;2.85;;;29.80;99.90;;;;;;5012615;28;20548;-81
2022/08/24 09:35:40;;;;;;;4.72;1.90;;;29.80;99.90;;;;;;5013135;28;20242;-85
2022/08/24 09:38:21;;;;;;;1.98;1.70;;;29.90;99.90;;;;;;5014234;28;20245;-86
2022/08/24 09:41:19;;;;;;;2.08;1.80;;;30.00;99.90;;;;;;5017838;28;20195;-83
2022/08/24 09:44:18;;;;;;;2.70;2.20;;;30.10;99.90;;;;;;5017090;28;20206;-86
2022/08/24 09:47:11;;;;;;;5.43;2.65;;;30.20;99.90;;;;;;5016075;28;20199;-84
2022/08/24 09:50:01;;;;;;;1.98;1.70;;;30.30;99.90;;;;;;5016486;28;20600;-85
2022/08/24 09:53:06;;;;;;;5.60;2.65;;;30.30;99.90;;;;;;5016882;28;20195;-84
2022/08/24 09:55:57;;;;;;;6.90;3.10;;;30.50;99.90;;;;;;5016469;28;20195;-85
2022/08/24 09:58:38;;;;;;;8.13;4.00;;;30.50;99.90;;;;;;5029696;28;20214;-84
2022/08/24 10:01:13;;;;;;;7.55;3.25;;;30.40;99.90;;;;;;5036629;28;20218;-84
2022/08/24 10:03:56;;;;;;;3.05;2.28;;;30.20;99.90;;;;;;5035964;28;20213;-86
2022/08/24 10:06:31;;;;;;;6.45;3.50;;;30.30;99.90;;;;;;5020986;28;20206;-84
2022/08/24 10:09:26;;;;;;;5.78;2.92;;;30.30;99.90;;;;;;5015820;28;20237;-84
2022/08/24 10:12:02;;;;;;;6.00;3.47;;;30.40;99.90;;;;;;5016728;28;20203;-83
2022/08/24 10:14:44;;;;;;;6.70;4.32;;;30.40;99.90;;;;;;5016341;28;20348;-86
2022/08/24 10:17:17;;;;;;;6.47;3.72;;;30.40;99.90;;;;;;5017535;28;20220;-86
2022/08/24 10:20:07;;;;;;;7.38;4.45;;;30.30;99.90;;;;;;5016630;28;20302;-84
2022/08/24 10:23:16;;;;;;;10.20;4.95;;;30.30;99.90;;;;;;5016728;28;20207;-81
2022/08/24 10:25:51;;;;;;;5.60;4.45;;;30.20;99.90;;;;;;5017001;28;20543;-86
2022/08/24 10:28:48;;;;;;;8.57;5.15;;;30.30;99.90;;;;;;5015715;28;20198;-84
2022/08/24 10:31:21;;;;;;;6.68;3.60;;;30.00;99.90;;;;;;5015294;28;20614;-78
2022/08/24 10:34:14;;;;;;;8.82;4.88;;;29.90;99.90;;;;;;5015560;28;20507;-84
2022/08/24 10:36:57;;;;;;;4.75;3.20;;;29.90;99.90;;;;;;5017918;28;20199;-85
2022/08/24 10:39:54;;;;;;;3.88;2.13;;;29.90;99.90;;;;;;5015782;28;20231;-83
2022/08/24 10:46:21;;;;;;;6.05;3.15;;;30.00;99.90;;;;;;4989105;28;20234;-81
2022/08/24 10:49:31;;;;;;;3.83;2.40;;;30.20;99.90;;;;;;5028883;28;20344;-79
2022/08/24 10:52:17;;;;;;;7.90;3.30;;;30.40;99.90;;;;;;5016410;28;20274;-84
2022/08/24 10:54:46;;;;;;;5.15;2.83;;;30.50;99.90;;;;;;5016038;28;20191;-86
2022/08/24 10:57:23;;;;;;;4.72;3.35;;;30.60;99.90;;;;;;5015907;28;20233;-83
2022/08/24 10:59:59;;;;;;;6.55;2.85;;;30.70;99.90;;;;;;5015895;28;20210;-85
2022/08/24 11:02:31;;;;;;;5.30;2.72;;;30.60;99.90;;;;;;5015641;28;20226;-86
2022/08/24 11:05:00;;;;;;;3.78;2.50;;;30.60;99.90;;;;;;5014862;28;20207;-77
2022/08/24 11:07:27;;;;;;;6.43;2.80;;;30.50;99.90;;;;;;5014205;28;20218;-78
2022/08/24 11:09:59;;;;;;;4.72;2.70;;;30.50;99.90;;;;;;5013298;28;20826;-82
2022/08/24 11:12:30;;;;;;;7.10;3.50;;;30.30;99.90;;;;;;5014212;28;20192;-77
2022/08/24 11:14:59;;;;;;;4.22;3.13;;;30.20;99.90;;;;;;5014516;28;20202;-82
2022/08/24 11:17:28;;;;;;;4.38;2.53;;;30.20;99.90;;;;;;5015618;28;20219;-85
2022/08/24 11:19:56;;;;;;;3.97;2.75;;;30.20;99.90;;;;;;5016282;28;20195;-87
2022/08/24 11:22:35;;;;;;;4.05;3.03;;;30.30;99.90;;;;;;5016070;28;20199;-85
2022/08/24 11:25:09;;;;;;;5.88;4.28;;;30.50;99.90;;;;;;5016060;28;20310;-86
2022/08/24 11:27:40;;;;;;;6.63;4.00;;;30.40;99.90;;;;;;5015581;28;20199;-86
2022/08/24 11:30:12;;;;;;;4.03;2.60;;;30.40;99.90;;;;;;5019576;28;20214;-80
2022/08/24 11:32:43;;;;;;;6.40;4.18;;;30.50;99.90;;;;;;5023733;28;20282;-77
2022/08/24 11:35:18;;;;;;;3.45;3.08;;;30.60;99.90;;;;;;5025770;28;20205;-77
2022/08/24 11:37:46;;;;;;;5.90;2.92;;;30.70;99.90;;;;;;5027759;28;20229;-81
2022/08/24 11:40:17;;;;;;;6.57;3.58;;;30.50;99.90;;;;;;5037223;28;20195;-84
2022/08/24 11:43:19;;;;;;;4.25;3.08;;;30.60;99.90;;;;;;5034228;28;20206;-85
2022/08/24 11:45:57;;;;;;;4.75;3.30;;;30.70;99.90;;;;;;5015959;28;20195;-76
2022/08/24 11:48:32;;;;;;;6.38;3.90;;;30.80;99.90;;;;;;5013904;28;20237;-83
2022/08/24 11:51:05;;;;;;;4.95;3.00;;;30.70;99.90;;;;;;5013315;28;20202;-77
2022/08/24 11:53:40;;;;;;;3.15;2.53;;;30.70;99.90;;;;;;5013133;28;20638;-79
2022/08/24 11:56:15;;;;;;;7.00;3.42;;;30.70;99.90;;;;;;5013411;28;20203;-77
2022/08/24 11:58:53;;;;;;;5.93;3.17;;;30.80;99.90;;;;;;5013104;28;20781;-78
2022/08/24 12:01:25;;;;;;;8.57;4.57;;;30.70;99.90;;;;;;5014250;28;20191;-84
2022/08/24 12:04:07;;;;;;;6.80;4.13;;;30.70;99.90;;;;;;5017642;28;20222;-80
2022/08/24 12:06:45;;;;;;;7.70;3.88;;;30.70;99.90;;;;;;5032593;28;20198;-86
2022/08/24 12:09:24;;;;;;;8.15;3.80;;;30.60;99.90;;;;;;5032977;28;20552;-83
2022/08/24 12:12:00;;;;;;;7.50;2.95;;;30.60;99.90;;;;;;5032924;28;20289;-82
2022/08/24 12:14:35;;;;;;;4.97;2.13;;;30.70;99.90;;;;;;5013952;28;20191;-85
2022/08/24 12:17:08;;;;;;;3.33;2.22;;;30.80;99.90;;;;;;5029818;28;20700;-84
2022/08/24 12:19:40;;;;;;;7.20;3.00;;;30.70;99.90;;;;;;5033812;28;20222;-85
2022/08/24 12:22:09;;;;;;;4.53;2.50;;;30.70;99.90;;;;;;5032413;28;20205;-84
2022/08/24 12:24:41;;;;;;;6.50;2.80;;;30.70;99.90;;;;;;5025334;28;20730;-81
2022/08/24 12:27:13;;;;;;;5.25;2.75;;;30.50;99.90;;;;;;5011763;28;20205;-85
2022/08/24 12:29:44;;;;;;;4.55;2.58;;;30.50;99.90;;;;;;5022869;28;20187;-86
2022/08/24 12:32:16;;;;;;;3.80;1.95;;;30.40;99.90;;;;;;5034585;28;20198;-86
2022/08/24 12:34:52;;;;;;;4.50;1.70;;;30.40;99.90;;;;;;5033918;28;20686;-85
2022/08/24 12:37:25;;;;;;;3.63;1.80;;;30.20;99.90;;;;;;5025368;28;20222;-86
2022/08/24 12:39:59;;;;;;;4.45;2.00;;;30.10;99.90;;;;;;5015475;28;20191;-85
2022/08/24 12:42:38;;;;;;;5.63;2.45;;;30.10;99.90;;;;;;5014494;28;20190;-85
2022/08/24 12:45:07;;;;;;;4.30;2.13;;;30.20;99.90;;;;;;5014659;28;20197;-87
2022/08/24 12:47:39;;;;;;;3.08;1.90;;;30.10;99.90;;;;;;5013976;28;20566;-85
2022/08/24 12:50:11;;;;;;;2.13;1.15;;;30.30;99.90;;;;;;5014683;28;20222;-86
2022/08/24 12:53:26;;;;;;;1.90;0.75;;;30.40;99.90;;;;;;5014668;28;20261;-81
2022/08/24 12:56:25;;;;;;;1.67;1.05;;;30.60;99.90;;;;;;5021103;28;20221;-85
2022/08/24 12:58:58;;;;;;;2.10;1.02;;;30.80;99.90;;;;;;5033680;28;20211;-84
2022/08/24 13:01:28;;;;;;;1.60;1.13;;;30.80;99.90;;;;;;5032878;28;20202;-84
2022/08/24 13:04:14;;;;;;;2.85;1.45;;;30.70;99.90;;;;;;5032995;28;20625;-77
2022/08/24 13:06:47;;;;;;;1.83;1.58;;;30.70;99.90;;;;;;5012443;28;20196;-78
2022/08/24 13:09:29;;;;;;;2.05;1.40;;;30.60;99.90;;;;;;5012343;28;20191;-85
2022/08/24 13:11:57;;;;;;;4.07;1.67;;;30.40;99.90;;;;;;5013150;28;20205;-78
2022/08/24 13:14:28;;;;;;;5.50;1.52;;;30.40;99.90;;;;;;5032504;28;20214;-79
2022/08/24 13:17:13;;;;;;;9.00;1.80;;;30.40;99.90;;;;;;5035340;28;20603;-79
2022/08/24 13:19:43;;;;;;;1.25;1.15;;;30.30;99.90;;;;;;5035421;28;20207;-76
2022/08/24 13:22:52;;;;;;;2.67;1.55;;;30.30;99.90;;;;;;5035916;28;20502;-79
2022/08/24 13:25:27;;;;;;;3.03;1.38;;;30.50;99.90;;;;;;5016171;28;20293;-78